createdAt,value
2019-01-17T00:02:27.067Z,21.45
2019-01-17T00:05:13.938Z,19.92
2019-01-17T00:08:00.926Z,18.23
2019-01-17T00:10:48.156Z,20.75
2019-01-17T00:13:35.058Z,23.22
2019-01-17T00:16:22.372Z,20.25
2019-01-17T00:22:20.689Z,20.92
2019-01-17T00:25:07.635Z,21.25
2019-01-17T00:28:15.560Z,19.70
2019-01-17T00:31:02.246Z,20.12
2019-01-17T00:33:49.148Z,22.58
2019-01-17T00:36:31.071Z,22.48
2019-01-17T00:39:17.951Z,20.95
2019-01-17T00:42:18.009Z,20.27
2019-01-17T00:44:53.408Z,21.10
2019-01-17T00:47:40.240Z,24.92
2019-01-17T00:50:27.476Z,23.52
2019-01-17T00:53:14.322Z,21.42
2019-01-17T00:56:02.201Z,22.82
2019-01-17T00:58:49.046Z,19.25
2019-01-17T01:01:35.934Z,19.00
2019-01-17T01:04:23.860Z,19.90
2019-01-17T01:07:11.011Z,20.95
2019-01-17T01:09:57.890Z,22.07
2019-01-17T01:12:47.242Z,23.60
2019-01-17T01:15:34.529Z,22.02
2019-01-17T01:18:23.413Z,20.45
2019-01-17T01:21:10.350Z,21.65
2019-01-17T01:23:57.157Z,20.25
2019-01-17T01:26:44.034Z,22.32
2019-01-17T01:29:50.422Z,22.13
2019-01-17T01:32:37.262Z,19.07
2019-01-17T01:35:43.246Z,22.42
2019-01-17T01:38:30.190Z,22.07
2019-01-17T01:41:16.993Z,21.55
2019-01-17T01:44:03.926Z,22.00
2019-01-17T01:53:11.381Z,22.85
2019-01-17T01:55:39.281Z,25.68
2019-01-17T01:58:07.137Z,22.87
2019-01-17T02:00:35.071Z,23.07
2019-01-17T02:03:21.934Z,21.95
2019-01-17T02:06:08.754Z,23.20
2019-01-17T02:08:36.614Z,22.45
2019-01-17T02:14:11.949Z,23.65
2019-01-17T02:16:39.858Z,25.43
2019-01-17T02:19:07.782Z,24.07
2019-01-17T02:21:35.607Z,22.30
2019-01-17T02:24:03.492Z,19.92
2019-01-17T02:26:31.375Z,19.90
2019-01-17T02:28:59.236Z,20.75
2019-01-17T02:31:27.069Z,22.25
2019-01-17T02:33:54.993Z,22.90
2019-01-17T02:36:22.848Z,21.12
2019-01-17T02:38:50.733Z,22.77
2019-01-17T02:41:18.821Z,22.98
2019-01-17T02:43:46.740Z,21.57
2019-01-17T02:46:14.611Z,21.82
2019-01-17T02:48:42.434Z,21.05
2019-01-17T02:54:04.647Z,20.08
2019-01-17T02:56:32.602Z,19.70
2019-01-17T02:59:00.441Z,20.40
2019-01-17T03:01:28.294Z,19.77
2019-01-17T03:03:56.086Z,20.50
2019-01-17T03:06:23.946Z,19.05
2019-01-17T03:08:51.770Z,20.65
2019-01-17T03:11:19.651Z,19.23
2019-01-17T03:13:47.493Z,19.82
2019-01-17T03:16:15.405Z,19.35
2019-01-17T03:18:43.260Z,23.60
2019-01-17T03:23:58.187Z,17.07
2019-01-17T03:26:26.095Z,17.77
2019-01-17T03:28:53.921Z,17.50
2019-01-17T03:31:21.855Z,18.48
2019-01-17T03:33:49.676Z,17.40
2019-01-17T03:41:59.788Z,18.65
2019-01-17T03:44:27.615Z,21.80
2019-01-17T03:46:55.519Z,17.98
2019-01-17T03:49:23.590Z,19.27
2019-01-17T03:54:25.646Z,17.55
2019-01-17T03:56:53.530Z,18.37
2019-01-17T03:59:21.442Z,18.40
2019-01-17T04:01:49.287Z,17.65
2019-01-17T04:04:17.148Z,17.62
2019-01-17T04:06:45.009Z,16.45
2019-01-17T04:09:12.879Z,16.25
2019-01-17T04:14:38.885Z,17.50
2019-01-17T04:17:06.709Z,19.85
2019-01-17T04:19:34.636Z,20.08
2019-01-17T04:22:04.466Z,20.12
2019-01-17T04:24:32.306Z,18.37
2019-01-17T04:27:00.215Z,18.67
2019-01-17T04:29:28.309Z,19.07
2019-01-17T04:31:56.144Z,18.20
2019-01-17T04:34:24.113Z,18.52
2019-01-17T04:36:52.000Z,20.95
2019-01-17T04:39:19.931Z,20.00
2019-01-17T04:41:47.805Z,19.23
2019-01-17T04:44:15.808Z,19.92
2019-01-17T04:47:02.686Z,22.02
2019-01-17T04:49:30.839Z,22.42
2019-01-17T04:51:58.690Z,20.62
2019-01-17T04:54:26.664Z,24.60
2019-01-17T04:56:54.539Z,22.85
2019-01-17T04:59:22.422Z,22.15
2019-01-17T05:01:50.240Z,23.20
2019-01-17T05:04:18.134Z,22.73
2019-01-17T05:06:46.041Z,21.90
2019-01-17T05:09:13.984Z,24.02
2019-01-17T05:11:41.835Z,23.42
2019-01-17T05:14:09.734Z,22.13
2019-01-17T05:16:37.579Z,22.50
2019-01-17T05:19:05.428Z,23.52
2019-01-17T05:21:53.779Z,26.12
2019-01-17T05:24:21.652Z,23.20
2019-01-17T05:27:08.552Z,24.98
2019-01-17T05:35:38.695Z,24.60
2019-01-17T05:38:06.505Z,26.15
2019-01-17T05:40:53.710Z,24.75
2019-01-17T05:46:14.270Z,26.50
2019-01-17T05:48:42.118Z,21.93
2019-01-17T05:51:09.999Z,23.55
2019-01-17T05:53:37.835Z,24.57
2019-01-17T05:56:05.695Z,23.40
2019-01-17T05:58:33.589Z,25.48
2019-01-17T06:01:01.562Z,22.93
2019-01-17T06:06:23.839Z,22.37
2019-01-17T06:08:53.734Z,23.10
2019-01-17T06:14:15.797Z,24.10
2019-01-17T06:16:43.693Z,24.77
2019-01-17T06:19:11.553Z,21.60
2019-01-17T06:21:39.654Z,21.30
2019-01-17T06:24:26.542Z,21.23
2019-01-17T06:26:54.440Z,22.42
2019-01-17T06:29:22.278Z,21.93
2019-01-17T06:31:50.120Z,23.38
2019-01-17T06:34:18.030Z,24.12
2019-01-17T06:36:45.887Z,23.20
2019-01-17T06:39:13.695Z,23.73
2019-01-17T06:41:41.513Z,26.25
2019-01-17T06:44:09.330Z,24.80
2019-01-17T06:46:37.142Z,23.60
2019-01-17T06:49:04.973Z,25.25
2019-01-17T06:51:32.803Z,29.27
2019-01-17T06:54:00.645Z,25.65
2019-01-17T06:59:15.475Z,26.90
2019-01-17T07:01:43.301Z,28.20
2019-01-17T07:04:11.121Z,31.60
2019-01-17T07:06:38.913Z,27.35
2019-01-17T07:09:07.949Z,29.15
2019-01-17T07:11:35.778Z,28.73
2019-01-17T07:14:03.721Z,28.32
2019-01-17T07:16:31.558Z,28.62
2019-01-17T07:18:59.381Z,28.17
2019-01-17T07:21:27.205Z,30.45
2019-01-17T07:24:02.059Z,33.05
2019-01-17T07:26:29.882Z,30.23
2019-01-17T07:28:57.680Z,30.80
2019-01-17T07:31:25.497Z,28.62
2019-01-17T07:33:53.296Z,31.52
2019-01-17T07:36:21.137Z,33.33
2019-01-17T07:38:48.987Z,31.73
2019-01-17T07:41:16.842Z,31.87
2019-01-17T07:43:44.977Z,31.12
2019-01-17T07:46:12.794Z,28.70
2019-01-17T07:48:40.629Z,30.60
2019-01-17T07:51:08.507Z,31.87
2019-01-17T07:53:36.310Z,30.00
2019-01-17T07:59:09.619Z,33.00
2019-01-17T08:01:37.469Z,31.73
2019-01-17T08:04:05.258Z,30.92
2019-01-17T08:06:33.070Z,29.37
2019-01-17T08:09:00.874Z,29.82
2019-01-17T08:11:28.781Z,29.25
2019-01-17T08:13:56.582Z,30.30
2019-01-17T08:16:24.424Z,32.10
2019-01-17T08:18:52.221Z,31.12
2019-01-17T08:21:20.021Z,33.83
2019-01-17T08:23:48.058Z,31.65
2019-01-17T08:26:15.866Z,35.55
2019-01-17T08:28:43.681Z,37.67
2019-01-17T08:31:11.476Z,32.42
2019-01-17T08:33:39.322Z,35.83
2019-01-17T08:36:07.138Z,32.17
2019-01-17T08:38:34.971Z,31.15
2019-01-17T08:41:03.152Z,31.27
2019-01-17T08:43:31.003Z,28.98
2019-01-17T08:45:58.890Z,27.82
2019-01-17T08:48:26.732Z,29.67
2019-01-17T08:50:54.582Z,28.92
2019-01-17T08:53:22.452Z,27.05
2019-01-17T08:55:50.581Z,28.47
2019-01-17T08:58:18.406Z,25.32
2019-01-17T09:00:46.205Z,27.50
2019-01-17T09:03:14.041Z,27.17
2019-01-17T09:05:41.844Z,24.90
2019-01-17T09:08:09.637Z,26.85
2019-01-17T09:10:37.509Z,25.35
2019-01-17T09:13:05.310Z,26.95
2019-01-17T09:15:34.045Z,25.15
2019-01-17T09:18:01.829Z,24.98
2019-01-17T09:20:29.649Z,27.90
2019-01-17T09:22:57.463Z,24.65
2019-01-17T09:25:25.307Z,24.50
2019-01-17T09:27:53.411Z,27.93
2019-01-17T09:30:21.258Z,23.55
2019-01-17T09:32:49.067Z,25.02
2019-01-17T09:35:16.910Z,27.30
2019-01-17T09:37:44.710Z,26.52
2019-01-17T09:40:16.524Z,23.00
2019-01-17T09:42:44.325Z,24.82
2019-01-17T09:45:12.313Z,22.67
2019-01-17T09:47:40.132Z,24.92
2019-01-17T09:50:10.737Z,27.90
2019-01-17T09:52:38.558Z,24.90
2019-01-17T09:55:06.420Z,25.92
2019-01-17T09:57:34.258Z,24.43
2019-01-17T10:00:02.106Z,23.40
2019-01-17T10:02:30.011Z,21.80
2019-01-17T10:04:57.810Z,21.80
2019-01-17T10:07:25.629Z,21.82
2019-01-17T10:09:53.435Z,23.65
2019-01-17T10:12:21.263Z,23.45
2019-01-17T10:14:49.077Z,19.80
2019-01-17T10:17:35.970Z,21.05
2019-01-17T10:20:22.892Z,18.65
2019-01-17T10:23:09.812Z,18.80
2019-01-17T10:25:57.017Z,19.48
2019-01-17T10:28:43.921Z,18.37
2019-01-17T10:31:30.786Z,18.75
2019-01-17T10:34:17.682Z,19.55
2019-01-17T10:37:04.582Z,17.02
2019-01-17T10:39:51.515Z,17.80
2019-01-17T10:42:38.440Z,17.73
2019-01-17T10:45:25.312Z,18.70
2019-01-17T10:48:12.261Z,18.05
2019-01-17T10:50:59.284Z,18.75
2019-01-17T10:53:46.217Z,19.92
2019-01-17T10:56:33.118Z,19.37
2019-01-17T10:59:20.145Z,18.98
2019-01-17T11:02:07.017Z,17.12
2019-01-17T11:04:53.920Z,18.65
2019-01-17T11:07:40.805Z,18.48
2019-01-17T11:10:27.716Z,20.57
2019-01-17T11:13:14.579Z,21.25
2019-01-17T11:15:50.405Z,17.95
2019-01-17T11:18:22.424Z,16.27
2019-01-17T11:21:09.329Z,16.55
2019-01-17T11:23:56.246Z,18.37
2019-01-17T11:26:43.150Z,20.15
2019-01-17T11:29:30.091Z,17.90
2019-01-17T11:32:16.958Z,17.35
2019-01-17T11:35:03.861Z,18.10
2019-01-17T11:37:50.749Z,18.05
2019-01-17T11:40:37.658Z,17.52
2019-01-17T11:43:24.541Z,18.95
2019-01-17T11:46:11.453Z,17.82
2019-01-17T11:48:58.367Z,17.37
2019-01-17T11:51:45.302Z,14.25
2019-01-17T11:54:32.209Z,17.12
2019-01-17T11:57:19.105Z,14.70
2019-01-17T12:00:06.143Z,14.80
2019-01-17T12:02:53.038Z,14.43
2019-01-17T12:05:20.858Z,15.10
2019-01-17T12:07:48.661Z,13.40
2019-01-17T12:10:16.512Z,15.10
2019-01-17T12:12:44.325Z,13.30
2019-01-17T12:15:12.123Z,13.03
2019-01-17T12:17:39.965Z,12.35
2019-01-17T12:20:08.725Z,12.10
2019-01-17T12:22:36.563Z,12.33
2019-01-17T12:25:04.773Z,13.90
2019-01-17T12:27:32.606Z,12.35
2019-01-17T12:30:00.417Z,12.80
2019-01-17T12:32:28.220Z,16.42
2019-01-17T12:34:56.027Z,14.75
2019-01-17T12:37:23.854Z,12.90
2019-01-17T12:39:51.660Z,13.35
2019-01-17T12:42:19.493Z,13.80
2019-01-17T12:44:47.317Z,13.00
2019-01-17T12:47:15.167Z,13.15
2019-01-17T12:49:43.019Z,12.55
2019-01-17T12:52:10.846Z,12.90
2019-01-17T12:54:38.669Z,13.40
2019-01-17T12:57:06.490Z,18.98
2019-01-17T12:59:34.343Z,13.58
2019-01-17T13:02:02.162Z,13.10
2019-01-17T13:04:29.984Z,13.38
2019-01-17T13:06:57.803Z,12.68
2019-01-17T13:09:25.638Z,13.18
2019-01-17T13:11:53.546Z,12.55
2019-01-17T13:14:21.361Z,14.05
2019-01-17T13:16:49.162Z,13.55
2019-01-17T13:19:17.006Z,15.15
2019-01-17T13:21:44.814Z,16.62
2019-01-17T13:24:12.828Z,15.05
2019-01-17T13:26:40.637Z,15.23
2019-01-17T13:29:08.486Z,16.45
2019-01-17T13:31:36.346Z,37.75
2019-01-17T13:34:04.247Z,18.37
2019-01-17T13:36:32.089Z,17.90
2019-01-17T13:38:59.882Z,17.40
2019-01-17T13:41:27.694Z,17.30
2019-01-17T13:43:55.589Z,17.25
2019-01-17T13:46:23.429Z,17.42
2019-01-17T13:48:51.254Z,16.35
2019-01-17T13:51:19.114Z,17.12
2019-01-17T13:53:46.977Z,18.92
2019-01-17T13:56:15.267Z,16.70
2019-01-17T13:58:43.057Z,17.07
2019-01-17T14:01:10.947Z,17.37
2019-01-17T14:03:38.752Z,17.70
2019-01-17T14:06:06.638Z,16.02
2019-01-17T14:08:34.441Z,17.20
2019-01-17T14:11:02.262Z,16.20
2019-01-17T14:13:30.087Z,16.05
2019-01-17T14:15:58.000Z,17.15
2019-01-17T14:18:27.973Z,16.07
2019-01-17T14:20:55.401Z,14.85
2019-01-17T14:23:23.234Z,14.78
2019-01-17T14:25:51.007Z,15.30
2019-01-17T14:28:18.957Z,14.80
2019-01-17T14:30:46.753Z,14.95
2019-01-17T14:33:14.574Z,16.07
2019-01-17T14:35:42.436Z,15.08
2019-01-17T14:38:10.312Z,16.15
2019-01-17T14:40:38.127Z,15.60
2019-01-17T14:43:05.977Z,15.13
2019-01-17T14:45:33.774Z,14.55
2019-01-17T14:48:01.613Z,15.50
2019-01-17T14:50:30.313Z,14.65
2019-01-17T14:52:58.175Z,13.90
2019-01-17T14:55:25.989Z,14.87
2019-01-17T14:57:53.814Z,15.18
2019-01-17T15:00:22.978Z,16.02
2019-01-17T15:02:50.837Z,15.53
2019-01-17T15:05:18.930Z,13.95
2019-01-17T15:07:46.765Z,15.15
2019-01-17T15:10:19.126Z,15.85
2019-01-17T15:12:46.914Z,15.32
2019-01-17T15:15:14.778Z,15.03
2019-01-17T15:17:42.596Z,14.10
2019-01-17T15:20:11.815Z,14.85
2019-01-17T15:22:39.726Z,14.50
2019-01-17T15:25:07.582Z,14.33
2019-01-17T15:27:35.409Z,14.13
2019-01-17T15:30:03.238Z,14.28
2019-01-17T15:32:31.023Z,13.65
2019-01-17T15:34:58.851Z,14.15
2019-01-17T15:37:26.658Z,15.38
2019-01-17T15:39:54.506Z,13.55
2019-01-17T15:42:22.610Z,14.83
2019-01-17T15:44:50.469Z,14.30
2019-01-17T15:47:18.345Z,13.20
2019-01-17T15:49:46.179Z,15.05
2019-01-17T15:52:13.995Z,14.23
2019-01-17T15:54:41.891Z,15.00
2019-01-17T15:57:09.708Z,13.72
2019-01-17T15:59:37.520Z,14.23
2019-01-17T16:02:05.377Z,14.68
2019-01-17T16:04:33.190Z,13.10
2019-01-17T16:07:01.025Z,15.10
2019-01-17T16:09:28.858Z,13.62
2019-01-17T16:11:56.705Z,13.10
2019-01-17T16:14:24.653Z,14.28
2019-01-17T16:16:52.502Z,13.18
2019-01-17T16:19:20.305Z,14.98
2019-01-17T16:21:48.201Z,14.85
2019-01-17T16:24:16.014Z,15.03
2019-01-17T16:26:43.907Z,13.55
2019-01-17T16:29:11.697Z,12.95
2019-01-17T16:31:39.542Z,15.58
2019-01-17T16:34:07.396Z,14.33
2019-01-17T16:36:35.228Z,20.52
2019-01-17T16:39:03.151Z,14.98
2019-01-17T16:41:31.002Z,15.63
2019-01-17T16:43:58.837Z,16.95
2019-01-17T16:46:26.830Z,15.43
2019-01-17T16:48:55.103Z,13.30
2019-01-17T16:51:22.968Z,17.25
2019-01-17T16:53:50.924Z,17.35
2019-01-17T16:56:18.769Z,13.83
2019-01-17T16:58:46.618Z,15.95
2019-01-17T17:01:14.464Z,22.75
2019-01-17T17:03:42.309Z,15.65
2019-01-17T17:06:10.138Z,18.48
2019-01-17T17:08:38.071Z,14.75
2019-01-17T17:11:06.492Z,17.12
2019-01-17T17:13:35.474Z,14.80
2019-01-17T17:16:03.316Z,16.27
2019-01-17T17:18:31.328Z,16.97
2019-01-17T17:20:59.146Z,13.48
2019-01-17T17:23:27.082Z,13.22
2019-01-17T17:25:54.959Z,17.45
2019-01-17T17:28:22.781Z,14.87
2019-01-17T17:30:50.610Z,13.50
2019-01-17T17:33:18.518Z,16.37
2019-01-17T17:35:46.366Z,17.07
2019-01-17T17:38:14.231Z,17.60
2019-01-17T17:40:42.085Z,13.58
2019-01-17T17:43:09.954Z,15.50
2019-01-17T17:45:37.797Z,19.85
2019-01-17T17:48:05.917Z,14.73
2019-01-17T17:50:34.082Z,13.45
2019-01-17T17:53:01.966Z,15.68
2019-01-17T17:58:23.726Z,15.68
2019-01-17T18:00:58.922Z,16.82
2019-01-17T18:03:26.767Z,16.25
2019-01-17T18:05:54.705Z,17.35
2019-01-17T18:08:22.635Z,20.10
2019-01-17T18:13:25.541Z,18.82
2019-01-17T18:15:53.441Z,18.65
2019-01-17T18:18:21.342Z,16.35
2019-01-17T18:20:49.343Z,18.48
2019-01-17T18:23:17.210Z,19.30
2019-01-17T18:25:45.235Z,20.62
2019-01-17T18:28:13.095Z,16.37
2019-01-17T18:31:00.095Z,17.67
2019-01-17T18:33:27.961Z,14.93
2019-01-17T18:35:55.909Z,17.62
2019-01-17T18:38:23.867Z,18.27
2019-01-17T18:43:45.822Z,16.20
2019-01-17T18:46:13.692Z,17.12
2019-01-17T18:48:41.745Z,15.72
2019-01-17T18:51:09.670Z,14.98
2019-01-17T18:53:38.126Z,16.25
2019-01-17T18:56:06.073Z,16.60
2019-01-17T18:58:33.971Z,16.60
2019-01-17T19:01:01.822Z,15.13
2019-01-17T19:03:29.774Z,15.55
2019-01-17T19:05:57.644Z,18.07
2019-01-17T19:08:25.670Z,16.15
2019-01-17T19:10:53.543Z,16.32
2019-01-17T19:13:21.407Z,17.35
2019-01-17T19:15:49.603Z,15.10
2019-01-17T19:18:17.654Z,18.32
2019-01-17T19:21:04.639Z,16.45
2019-01-17T19:23:32.654Z,15.05
2019-01-17T19:26:15.832Z,17.45
2019-01-17T19:28:33.158Z,15.90
2019-01-17T19:34:08.545Z,16.97
2019-01-17T19:36:36.369Z,17.27
2019-01-17T19:42:00.462Z,18.40
2019-01-17T19:44:28.415Z,17.85
2019-01-17T19:46:56.333Z,20.20
2019-01-17T19:49:27.109Z,16.40
2019-01-17T19:51:54.998Z,18.10
2019-01-17T19:54:25.465Z,16.93
2019-01-17T19:56:53.379Z,17.80
2019-01-17T19:59:21.349Z,18.15
2019-01-17T20:01:49.237Z,19.77
2019-01-17T20:04:17.094Z,20.80
2019-01-17T20:06:45.410Z,18.20
2019-01-17T20:12:02.227Z,17.15
2019-01-17T20:14:30.074Z,16.93
2019-01-17T20:19:32.057Z,19.50
2019-01-17T20:21:59.970Z,17.00
2019-01-17T20:24:27.831Z,16.07
2019-01-17T20:26:55.835Z,15.35
2019-01-17T20:29:42.747Z,16.07
2019-01-17T20:32:10.735Z,16.93
2019-01-17T20:34:38.641Z,16.25
2019-01-17T20:40:00.977Z,16.70
2019-01-17T21:23:15.313Z,23.10
2019-01-17T21:28:16.663Z,19.95
2019-01-17T21:30:44.551Z,19.90
2019-01-17T21:33:12.441Z,17.55
2019-01-17T21:35:40.717Z,21.50
2019-01-17T21:38:08.574Z,19.20
2019-01-17T21:40:36.472Z,18.45
2019-01-17T21:43:04.407Z,25.10
2019-01-17T21:45:32.294Z,17.40
2019-01-17T21:48:00.101Z,18.35
2019-01-17T21:50:48.166Z,20.52
2019-01-17T21:53:16.085Z,20.92
2019-01-17T21:55:44.250Z,17.40
2019-01-17T21:58:12.094Z,17.50
2019-01-17T22:03:34.257Z,18.55
2019-01-17T22:06:02.187Z,19.30
2019-01-17T22:08:30.089Z,17.60
2019-01-17T22:10:57.999Z,18.50
2019-01-17T22:13:25.838Z,19.67
2019-01-17T22:15:53.742Z,17.65
2019-01-17T22:18:21.641Z,18.07
2019-01-17T22:20:49.627Z,16.75
2019-01-17T22:23:36.588Z,18.42
2019-01-17T22:29:02.420Z,18.60
2019-01-17T22:31:28.347Z,18.25
2019-01-17T22:33:56.206Z,16.97
2019-01-17T22:36:24.100Z,17.32
2019-01-17T22:38:51.952Z,16.70
2019-01-17T22:41:19.874Z,15.98
2019-01-17T22:43:47.833Z,16.25
2019-01-17T22:46:15.714Z,15.70
2019-01-17T22:48:43.689Z,15.43
2019-01-17T22:51:11.530Z,17.15
2019-01-17T22:53:39.445Z,16.30
2019-01-17T22:56:07.322Z,16.55
2019-01-17T22:58:37.700Z,16.07
2019-01-17T23:04:16.320Z,16.40
2019-01-17T23:06:44.205Z,17.65
2019-01-17T23:09:12.373Z,17.52
2019-01-17T23:11:40.204Z,17.10
2019-01-17T23:14:08.032Z,16.25
2019-01-17T23:16:35.930Z,15.50
2019-01-17T23:21:58.295Z,19.05
2019-01-17T23:24:26.184Z,17.87
2019-01-17T23:26:54.006Z,17.32
2019-01-17T23:29:21.885Z,17.67
2019-01-17T23:31:50.077Z,18.07
2019-01-17T23:34:36.993Z,17.73
2019-01-17T23:37:04.827Z,17.07
2019-01-17T23:39:32.745Z,17.48
2019-01-17T23:42:00.680Z,17.37
2019-01-17T23:44:28.532Z,16.35
2019-01-17T23:46:56.384Z,18.50
2019-01-17T23:49:24.238Z,18.27
2019-01-17T23:51:52.213Z,17.77
2019-01-17T23:54:20.077Z,16.48
2019-01-17T23:56:47.918Z,17.42
2019-01-17T23:59:15.896Z,17.60
